sensor_id;sensor_type;location;lat;lon;timestamp;temperature;humidity
12413;DHT22;13877;18.896;-99.222;2023-05-21T00:01:04;32.60;28.50
12413;DHT22;13877;18.896;-99.222;2023-05-21T00:03:31;32.00;28.40
12413;DHT22;13877;18.896;-99.222;2023-05-21T00:05:59;31.60;28.90
12413;DHT22;13877;18.896;-99.222;2023-05-21T00:08:45;31.10;29.70
12413;DHT22;13877;18.896;-99.222;2023-05-21T00:11:12;31.00;29.80
12413;DHT22;13877;18.896;-99.222;2023-05-21T00:13:39;30.80;29.90
12413;DHT22;13877;18.896;-99.222;2023-05-21T00:16:07;30.60;30.30
12413;DHT22;13877;18.896;-99.222;2023-05-21T00:18:36;30.40;30.40
12413;DHT22;13877;18.896;-99.222;2023-05-21T00:21:05;30.20;31.30
12413;DHT22;13877;18.896;-99.222;2023-05-21T00:23:31;30.20;30.90
12413;DHT22;13877;18.896;-99.222;2023-05-21T00:25:59;30.10;31.00
12413;DHT22;13877;18.896;-99.222;2023-05-21T00:28:26;30.00;31.60
12413;DHT22;13877;18.896;-99.222;2023-05-21T00:30:53;29.90;31.10
12413;DHT22;13877;18.896;-99.222;2023-05-21T00:33:19;29.90;31.20
12413;DHT22;13877;18.896;-99.222;2023-05-21T00:35:47;29.80;31.50
12413;DHT22;13877;18.896;-99.222;2023-05-21T00:38:14;29.80;31.10
12413;DHT22;13877;18.896;-99.222;2023-05-21T00:40:43;29.70;31.50
12413;DHT22;13877;18.896;-99.222;2023-05-21T00:43:10;29.70;32.00
12413;DHT22;13877;18.896;-99.222;2023-05-21T00:45:37;29.60;31.80
12413;DHT22;13877;18.896;-99.222;2023-05-21T00:48:05;29.60;32.40
12413;DHT22;13877;18.896;-99.222;2023-05-21T00:50:32;29.50;31.60
12413;DHT22;13877;18.896;-99.222;2023-05-21T00:52:59;29.40;31.90
12413;DHT22;13877;18.896;-99.222;2023-05-21T00:55:26;29.30;31.80
12413;DHT22;13877;18.896;-99.222;2023-05-21T00:57:54;29.20;31.80
12413;DHT22;13877;18.896;-99.222;2023-05-21T01:00:22;28.90;32.40
12413;DHT22;13877;18.896;-99.222;2023-05-21T01:02:52;28.80;33.40
12413;DHT22;13877;18.896;-99.222;2023-05-21T01:05:19;28.70;33.10
12413;DHT22;13877;18.896;-99.222;2023-05-21T01:07:50;28.70;33.60
12413;DHT22;13877;18.896;-99.222;2023-05-21T01:10:16;28.50;33.90
12413;DHT22;13877;18.896;-99.222;2023-05-21T01:12:43;28.40;33.90
12413;DHT22;13877;18.896;-99.222;2023-05-21T01:15:11;28.20;35.00
12413;DHT22;13877;18.896;-99.222;2023-05-21T01:17:39;27.90;35.40
12413;DHT22;13877;18.896;-99.222;2023-05-21T01:20:07;27.60;36.10
12413;DHT22;13877;18.896;-99.222;2023-05-21T01:22:51;27.30;36.90
12413;DHT22;13877;18.896;-99.222;2023-05-21T01:25:19;27.10;36.90
12413;DHT22;13877;18.896;-99.222;2023-05-21T01:27:46;27.10;36.30
12413;DHT22;13877;18.896;-99.222;2023-05-21T01:30:14;27.20;35.80
12413;DHT22;13877;18.896;-99.222;2023-05-21T01:35:49;27.20;36.40
12413;DHT22;13877;18.896;-99.222;2023-05-21T01:38:28;27.20;35.50
12413;DHT22;13877;18.896;-99.222;2023-05-21T01:41:09;27.20;36.00
12413;DHT22;13877;18.896;-99.222;2023-05-21T01:43:43;27.20;35.80
12413;DHT22;13877;18.896;-99.222;2023-05-21T01:46:18;27.10;36.70
12413;DHT22;13877;18.896;-99.222;2023-05-21T01:48:47;27.10;36.80
12413;DHT22;13877;18.896;-99.222;2023-05-21T01:51:16;27.00;37.60
12413;DHT22;13877;18.896;-99.222;2023-05-21T01:53:43;26.90;38.10
12413;DHT22;13877;18.896;-99.222;2023-05-21T01:56:10;26.90;37.80
12413;DHT22;13877;18.896;-99.222;2023-05-21T01:58:38;26.90;37.20
12413;DHT22;13877;18.896;-99.222;2023-05-21T02:01:04;27.10;37.20
12413;DHT22;13877;18.896;-99.222;2023-05-21T02:03:32;27.30;37.30
12413;DHT22;13877;18.896;-99.222;2023-05-21T02:05:59;27.30;37.40
12413;DHT22;13877;18.896;-99.222;2023-05-21T02:08:26;27.40;38.00
12413;DHT22;13877;18.896;-99.222;2023-05-21T02:10:56;27.30;38.30
12413;DHT22;13877;18.896;-99.222;2023-05-21T02:13:23;27.20;38.40
12413;DHT22;13877;18.896;-99.222;2023-05-21T02:15:50;27.20;38.60
12413;DHT22;13877;18.896;-99.222;2023-05-21T02:18:20;27.10;38.60
12413;DHT22;13877;18.896;-99.222;2023-05-21T02:20:47;27.00;38.70
12413;DHT22;13877;18.896;-99.222;2023-05-21T02:23:14;27.00;38.90
12413;DHT22;13877;18.896;-99.222;2023-05-21T02:25:41;26.90;38.90
12413;DHT22;13877;18.896;-99.222;2023-05-21T02:28:09;26.80;39.00
12413;DHT22;13877;18.896;-99.222;2023-05-21T02:30:36;26.80;39.40
12413;DHT22;13877;18.896;-99.222;2023-05-21T02:33:03;26.70;39.20
12413;DHT22;13877;18.896;-99.222;2023-05-21T02:35:30;26.70;39.30
12413;DHT22;13877;18.896;-99.222;2023-05-21T02:37:57;26.70;39.40
12413;DHT22;13877;18.896;-99.222;2023-05-21T02:40:28;26.70;39.40
12413;DHT22;13877;18.896;-99.222;2023-05-21T02:42:55;26.70;39.40
12413;DHT22;13877;18.896;-99.222;2023-05-21T02:45:22;26.60;39.40
12413;DHT22;13877;18.896;-99.222;2023-05-21T02:47:49;26.60;39.90
12413;DHT22;13877;18.896;-99.222;2023-05-21T02:50:18;26.50;40.20
12413;DHT22;13877;18.896;-99.222;2023-05-21T02:52:53;26.50;40.20
12413;DHT22;13877;18.896;-99.222;2023-05-21T02:55:20;26.50;40.40
12413;DHT22;13877;18.896;-99.222;2023-05-21T02:57:47;26.50;40.60
12413;DHT22;13877;18.896;-99.222;2023-05-21T03:00:15;26.60;40.80
12413;DHT22;13877;18.896;-99.222;2023-05-21T03:02:42;26.60;41.00
12413;DHT22;13877;18.896;-99.222;2023-05-21T03:05:10;26.50;41.30
12413;DHT22;13877;18.896;-99.222;2023-05-21T03:07:37;26.40;41.40
12413;DHT22;13877;18.896;-99.222;2023-05-21T03:10:04;26.40;41.80
12413;DHT22;13877;18.896;-99.222;2023-05-21T03:12:31;26.30;41.80
12413;DHT22;13877;18.896;-99.222;2023-05-21T03:14:58;26.40;41.80
12413;DHT22;13877;18.896;-99.222;2023-05-21T03:17:27;26.30;42.10
12413;DHT22;13877;18.896;-99.222;2023-05-21T03:19:54;26.20;42.50
12413;DHT22;13877;18.896;-99.222;2023-05-21T03:22:21;26.10;42.60
12413;DHT22;13877;18.896;-99.222;2023-05-21T03:24:48;26.10;42.80
12413;DHT22;13877;18.896;-99.222;2023-05-21T03:27:16;26.10;43.20
12413;DHT22;13877;18.896;-99.222;2023-05-21T03:29:44;26.10;43.00
12413;DHT22;13877;18.896;-99.222;2023-05-21T03:32:12;26.40;42.80
12413;DHT22;13877;18.896;-99.222;2023-05-21T03:34:39;26.40;42.20
12413;DHT22;13877;18.896;-99.222;2023-05-21T03:37:06;26.50;42.30
12413;DHT22;13877;18.896;-99.222;2023-05-21T03:39:33;26.50;42.00
12413;DHT22;13877;18.896;-99.222;2023-05-21T03:42:00;26.70;42.00
12413;DHT22;13877;18.896;-99.222;2023-05-21T03:44:38;26.70;42.00
12413;DHT22;13877;18.896;-99.222;2023-05-21T03:47:40;26.70;42.40
12413;DHT22;13877;18.896;-99.222;2023-05-21T03:50:09;26.80;42.80
12413;DHT22;13877;18.896;-99.222;2023-05-21T03:52:38;26.70;42.80
12413;DHT22;13877;18.896;-99.222;2023-05-21T03:55:05;26.70;42.20
12413;DHT22;13877;18.896;-99.222;2023-05-21T03:57:32;26.60;42.20
12413;DHT22;13877;18.896;-99.222;2023-05-21T03:59:59;26.60;42.80
12413;DHT22;13877;18.896;-99.222;2023-05-21T04:02:26;26.50;42.80
12413;DHT22;13877;18.896;-99.222;2023-05-21T04:04:53;26.60;43.20
12413;DHT22;13877;18.896;-99.222;2023-05-21T04:07:22;26.50;43.50
12413;DHT22;13877;18.896;-99.222;2023-05-21T04:09:49;26.40;44.00
12413;DHT22;13877;18.896;-99.222;2023-05-21T04:12:16;26.30;43.80
12413;DHT22;13877;18.896;-99.222;2023-05-21T04:14:45;26.30;43.40
12413;DHT22;13877;18.896;-99.222;2023-05-21T04:17:12;26.20;43.70
12413;DHT22;13877;18.896;-99.222;2023-05-21T04:19:40;26.20;42.60
12413;DHT22;13877;18.896;-99.222;2023-05-21T04:22:08;26.30;42.30
12413;DHT22;13877;18.896;-99.222;2023-05-21T04:24:36;26.40;43.10
12413;DHT22;13877;18.896;-99.222;2023-05-21T04:27:16;26.40;42.90
12413;DHT22;13877;18.896;-99.222;2023-05-21T04:29:44;26.40;42.50
12413;DHT22;13877;18.896;-99.222;2023-05-21T04:32:11;26.50;42.00
12413;DHT22;13877;18.896;-99.222;2023-05-21T04:34:40;26.60;41.90
12413;DHT22;13877;18.896;-99.222;2023-05-21T04:37:08;26.60;42.10
12413;DHT22;13877;18.896;-99.222;2023-05-21T04:39:35;26.70;42.30
12413;DHT22;13877;18.896;-99.222;2023-05-21T04:42:02;26.70;42.60
12413;DHT22;13877;18.896;-99.222;2023-05-21T04:44:29;26.70;42.40
12413;DHT22;13877;18.896;-99.222;2023-05-21T04:46:58;26.70;42.60
12413;DHT22;13877;18.896;-99.222;2023-05-21T04:49:25;26.70;42.80
12413;DHT22;13877;18.896;-99.222;2023-05-21T04:51:52;26.70;42.70
12413;DHT22;13877;18.896;-99.222;2023-05-21T04:54:19;26.60;42.90
12413;DHT22;13877;18.896;-99.222;2023-05-21T04:56:46;26.60;43.10
12413;DHT22;13877;18.896;-99.222;2023-05-21T04:59:14;26.60;43.30
12413;DHT22;13877;18.896;-99.222;2023-05-21T05:01:42;26.60;43.40
12413;DHT22;13877;18.896;-99.222;2023-05-21T05:04:09;26.60;44.10
12413;DHT22;13877;18.896;-99.222;2023-05-21T05:06:36;26.60;43.60
12413;DHT22;13877;18.896;-99.222;2023-05-21T05:09:04;26.60;43.50
12413;DHT22;13877;18.896;-99.222;2023-05-21T05:11:31;26.50;43.60
12413;DHT22;13877;18.896;-99.222;2023-05-21T05:13:58;26.50;43.50
12413;DHT22;13877;18.896;-99.222;2023-05-21T05:16:25;26.50;43.40
12413;DHT22;13877;18.896;-99.222;2023-05-21T05:18:56;26.50;43.70
12413;DHT22;13877;18.896;-99.222;2023-05-21T05:21:23;26.50;43.70
12413;DHT22;13877;18.896;-99.222;2023-05-21T05:23:50;26.50;43.60
12413;DHT22;13877;18.896;-99.222;2023-05-21T05:26:21;26.40;43.60
12413;DHT22;13877;18.896;-99.222;2023-05-21T05:28:48;26.40;43.60
12413;DHT22;13877;18.896;-99.222;2023-05-21T05:31:15;26.40;43.90
12413;DHT22;13877;18.896;-99.222;2023-05-21T05:33:43;26.40;43.40
12413;DHT22;13877;18.896;-99.222;2023-05-21T05:36:11;26.50;43.40
12413;DHT22;13877;18.896;-99.222;2023-05-21T05:38:38;26.50;43.50
12413;DHT22;13877;18.896;-99.222;2023-05-21T05:41:05;26.50;43.30
12413;DHT22;13877;18.896;-99.222;2023-05-21T05:43:32;26.40;43.10
12413;DHT22;13877;18.896;-99.222;2023-05-21T05:45:59;26.40;43.20
12413;DHT22;13877;18.896;-99.222;2023-05-21T05:48:26;26.40;43.90
12413;DHT22;13877;18.896;-99.222;2023-05-21T05:50:54;26.30;44.60
12413;DHT22;13877;18.896;-99.222;2023-05-21T05:53:24;26.20;45.20
12413;DHT22;13877;18.896;-99.222;2023-05-21T05:55:51;26.00;45.60
12413;DHT22;13877;18.896;-99.222;2023-05-21T05:58:18;25.90;45.90
12413;DHT22;13877;18.896;-99.222;2023-05-21T06:01:08;25.90;46.50
12413;DHT22;13877;18.896;-99.222;2023-05-21T06:03:35;25.70;46.90
12413;DHT22;13877;18.896;-99.222;2023-05-21T06:06:09;25.60;47.60
12413;DHT22;13877;18.896;-99.222;2023-05-21T06:08:38;25.60;48.20
12413;DHT22;13877;18.896;-99.222;2023-05-21T06:11:05;25.50;48.50
12413;DHT22;13877;18.896;-99.222;2023-05-21T06:13:32;25.40;48.90
12413;DHT22;13877;18.896;-99.222;2023-05-21T06:15:59;25.40;49.30
12413;DHT22;13877;18.896;-99.222;2023-05-21T06:18:26;25.40;49.70
12413;DHT22;13877;18.896;-99.222;2023-05-21T06:20:53;25.40;50.10
12413;DHT22;13877;18.896;-99.222;2023-05-21T06:23:22;25.30;50.90
12413;DHT22;13877;18.896;-99.222;2023-05-21T06:25:49;25.20;51.70
12413;DHT22;13877;18.896;-99.222;2023-05-21T06:28:17;25.10;52.60
12413;DHT22;13877;18.896;-99.222;2023-05-21T06:30:44;24.90;53.10
12413;DHT22;13877;18.896;-99.222;2023-05-21T06:33:11;24.80;53.70
12413;DHT22;13877;18.896;-99.222;2023-05-21T06:35:38;24.70;54.20
12413;DHT22;13877;18.896;-99.222;2023-05-21T06:38:07;24.60;54.60
12413;DHT22;13877;18.896;-99.222;2023-05-21T06:40:34;24.60;54.80
12413;DHT22;13877;18.896;-99.222;2023-05-21T06:43:02;24.50;55.30
12413;DHT22;13877;18.896;-99.222;2023-05-21T06:45:33;24.50;55.60
12413;DHT22;13877;18.896;-99.222;2023-05-21T06:48:07;24.40;56.20
12413;DHT22;13877;18.896;-99.222;2023-05-21T06:50:34;24.20;57.50
12413;DHT22;13877;18.896;-99.222;2023-05-21T06:53:01;23.90;58.30
12413;DHT22;13877;18.896;-99.222;2023-05-21T06:55:29;23.80;60.30
12413;DHT22;13877;18.896;-99.222;2023-05-21T06:58:24;23.50;63.70
12413;DHT22;13877;18.896;-99.222;2023-05-21T07:00:57;22.80;72.20
12413;DHT22;13877;18.896;-99.222;2023-05-21T07:03:24;22.30;91.30
12413;DHT22;13877;18.896;-99.222;2023-05-21T07:05:53;21.80;99.90
12413;DHT22;13877;18.896;-99.222;2023-05-21T07:08:20;21.60;99.90
12413;DHT22;13877;18.896;-99.222;2023-05-21T07:10:48;21.40;99.90
12413;DHT22;13877;18.896;-99.222;2023-05-21T07:13:16;21.40;99.90
12413;DHT22;13877;18.896;-99.222;2023-05-21T07:15:44;21.50;99.90
12413;DHT22;13877;18.896;-99.222;2023-05-21T07:18:11;21.40;99.90
12413;DHT22;13877;18.896;-99.222;2023-05-21T07:20:39;21.10;99.90
12413;DHT22;13877;18.896;-99.222;2023-05-21T07:23:09;21.10;99.90
12413;DHT22;13877;18.896;-99.222;2023-05-21T07:25:35;21.20;99.90
12413;DHT22;13877;18.896;-99.222;2023-05-21T07:28:03;21.20;99.90
12413;DHT22;13877;18.896;-99.222;2023-05-21T07:30:31;21.10;99.90
12413;DHT22;13877;18.896;-99.222;2023-05-21T07:32:58;21.10;99.90
12413;DHT22;13877;18.896;-99.222;2023-05-21T07:35:25;21.20;99.90
12413;DHT22;13877;18.896;-99.222;2023-05-21T07:37:51;21.20;99.90
12413;DHT22;13877;18.896;-99.222;2023-05-21T07:40:18;21.30;99.90
12413;DHT22;13877;18.896;-99.222;2023-05-21T07:42:45;21.50;99.90
12413;DHT22;13877;18.896;-99.222;2023-05-21T07:45:13;21.40;99.90
12413;DHT22;13877;18.896;-99.222;2023-05-21T07:47:44;21.40;99.90
12413;DHT22;13877;18.896;-99.222;2023-05-21T07:50:13;21.40;99.90
12413;DHT22;13877;18.896;-99.222;2023-05-21T07:52:41;21.50;99.90
12413;DHT22;13877;18.896;-99.222;2023-05-21T07:55:08;21.40;99.90
12413;DHT22;13877;18.896;-99.222;2023-05-21T07:57:37;21.00;99.90
12413;DHT22;13877;18.896;-99.222;2023-05-21T08:00:10;20.90;99.90
12413;DHT22;13877;18.896;-99.222;2023-05-21T08:02:47;21.10;99.90
12413;DHT22;13877;18.896;-99.222;2023-05-21T08:05:15;21.20;99.90
12413;DHT22;13877;18.896;-99.222;2023-05-21T08:07:42;21.40;99.90
12413;DHT22;13877;18.896;-99.222;2023-05-21T08:10:10;21.40;99.90
12413;DHT22;13877;18.896;-99.222;2023-05-21T08:12:37;21.50;99.90
12413;DHT22;13877;18.896;-99.222;2023-05-21T08:15:06;21.50;99.90
12413;DHT22;13877;18.896;-99.222;2023-05-21T08:17:37;21.70;99.90
12413;DHT22;13877;18.896;-99.222;2023-05-21T08:20:04;22.00;99.90
12413;DHT22;13877;18.896;-99.222;2023-05-21T08:22:33;22.30;99.90
12413;DHT22;13877;18.896;-99.222;2023-05-21T08:25:00;22.30;99.90
12413;DHT22;13877;18.896;-99.222;2023-05-21T08:27:27;22.40;99.90
12413;DHT22;13877;18.896;-99.222;2023-05-21T08:29:55;22.40;99.90
12413;DHT22;13877;18.896;-99.222;2023-05-21T08:32:21;22.50;99.90
12413;DHT22;13877;18.896;-99.222;2023-05-21T08:34:48;22.60;99.90
12413;DHT22;13877;18.896;-99.222;2023-05-21T08:37:31;22.60;99.90
12413;DHT22;13877;18.896;-99.222;2023-05-21T08:40:09;22.50;99.90
12413;DHT22;13877;18.896;-99.222;2023-05-21T08:42:46;22.40;99.90
12413;DHT22;13877;18.896;-99.222;2023-05-21T08:45:25;22.40;99.90
12413;DHT22;13877;18.896;-99.222;2023-05-21T08:47:56;22.50;99.90
12413;DHT22;13877;18.896;-99.222;2023-05-21T08:50:27;22.40;99.90
12413;DHT22;13877;18.896;-99.222;2023-05-21T08:52:56;22.40;99.90
12413;DHT22;13877;18.896;-99.222;2023-05-21T08:55:24;22.40;99.90
12413;DHT22;13877;18.896;-99.222;2023-05-21T08:57:54;22.40;99.90
12413;DHT22;13877;18.896;-99.222;2023-05-21T09:00:21;22.40;99.90
12413;DHT22;13877;18.896;-99.222;2023-05-21T09:02:52;22.40;99.90
12413;DHT22;13877;18.896;-99.222;2023-05-21T09:05:25;22.40;99.90
12413;DHT22;13877;18.896;-99.222;2023-05-21T09:10:52;22.50;99.90
12413;DHT22;13877;18.896;-99.222;2023-05-21T09:13:24;22.60;99.90
12413;DHT22;13877;18.896;-99.222;2023-05-21T09:15:52;22.70;99.90
12413;DHT22;13877;18.896;-99.222;2023-05-21T09:18:21;22.80;99.90
12413;DHT22;13877;18.896;-99.222;2023-05-21T09:20:53;23.00;99.90
12413;DHT22;13877;18.896;-99.222;2023-05-21T09:23:23;23.00;99.90
12413;DHT22;13877;18.896;-99.222;2023-05-21T09:25:54;23.00;99.90
12413;DHT22;13877;18.896;-99.222;2023-05-21T09:28:30;23.00;99.90
12413;DHT22;13877;18.896;-99.222;2023-05-21T09:31:02;23.00;99.90
12413;DHT22;13877;18.896;-99.222;2023-05-21T09:33:29;22.90;99.90
12413;DHT22;13877;18.896;-99.222;2023-05-21T09:35:56;22.80;99.90
12413;DHT22;13877;18.896;-99.222;2023-05-21T09:38:25;22.80;99.90
12413;DHT22;13877;18.896;-99.222;2023-05-21T09:40:54;22.80;99.90
12413;DHT22;13877;18.896;-99.222;2023-05-21T09:43:25;22.70;99.90
12413;DHT22;13877;18.896;-99.222;2023-05-21T09:45:56;22.70;99.90
12413;DHT22;13877;18.896;-99.222;2023-05-21T09:48:37;22.60;99.90
12413;DHT22;13877;18.896;-99.222;2023-05-21T09:51:20;22.60;99.90
12413;DHT22;13877;18.896;-99.222;2023-05-21T09:53:55;22.60;99.90
12413;DHT22;13877;18.896;-99.222;2023-05-21T09:56:28;22.60;99.90
12413;DHT22;13877;18.896;-99.222;2023-05-21T09:58:59;22.60;99.90
12413;DHT22;13877;18.896;-99.222;2023-05-21T10:01:27;22.70;99.90
12413;DHT22;13877;18.896;-99.222;2023-05-21T10:04:02;22.60;99.90
12413;DHT22;13877;18.896;-99.222;2023-05-21T10:06:30;22.60;99.90
12413;DHT22;13877;18.896;-99.222;2023-05-21T10:09:02;22.60;99.90
12413;DHT22;13877;18.896;-99.222;2023-05-21T10:11:33;22.70;99.90
12413;DHT22;13877;18.896;-99.222;2023-05-21T10:14:06;22.80;99.90
12413;DHT22;13877;18.896;-99.222;2023-05-21T10:16:35;22.80;99.90
12413;DHT22;13877;18.896;-99.222;2023-05-21T10:19:02;22.80;99.90
12413;DHT22;13877;18.896;-99.222;2023-05-21T10:21:31;22.90;99.90
12413;DHT22;13877;18.896;-99.222;2023-05-21T10:24:01;22.80;99.90
12413;DHT22;13877;18.896;-99.222;2023-05-21T10:26:30;22.80;99.90
12413;DHT22;13877;18.896;-99.222;2023-05-21T10:28:57;22.80;99.90
12413;DHT22;13877;18.896;-99.222;2023-05-21T10:31:26;22.80;99.90
12413;DHT22;13877;18.896;-99.222;2023-05-21T10:33:55;22.80;99.90
12413;DHT22;13877;18.896;-99.222;2023-05-21T10:36:29;22.80;99.90
12413;DHT22;13877;18.896;-99.222;2023-05-21T10:39:00;22.80;99.90
12413;DHT22;13877;18.896;-99.222;2023-05-21T10:41:34;22.90;99.90
12413;DHT22;13877;18.896;-99.222;2023-05-21T10:50:07;22.70;99.90
12413;DHT22;13877;18.896;-99.222;2023-05-21T10:55:53;22.70;99.90
12413;DHT22;13877;18.896;-99.222;2023-05-21T11:01:03;22.60;99.90
12413;DHT22;13877;18.896;-99.222;2023-05-21T11:03:31;22.60;99.90
12413;DHT22;13877;18.896;-99.222;2023-05-21T11:06:01;22.60;99.90
12413;DHT22;13877;18.896;-99.222;2023-05-21T11:08:31;22.60;99.90
12413;DHT22;13877;18.896;-99.222;2023-05-21T11:11:03;22.60;99.90
12413;DHT22;13877;18.896;-99.222;2023-05-21T11:13:46;22.60;99.90
12413;DHT22;13877;18.896;-99.222;2023-05-21T11:16:17;22.50;99.90
12413;DHT22;13877;18.896;-99.222;2023-05-21T11:21:15;22.50;99.90
12413;DHT22;13877;18.896;-99.222;2023-05-21T11:23:57;22.40;99.90
12413;DHT22;13877;18.896;-99.222;2023-05-21T11:26:26;22.40;99.80
12413;DHT22;13877;18.896;-99.222;2023-05-21T11:31:33;22.30;99.90
12413;DHT22;13877;18.896;-99.222;2023-05-21T11:34:20;22.20;99.90
12413;DHT22;13877;18.896;-99.222;2023-05-21T11:39:55;22.10;99.90
12413;DHT22;13877;18.896;-99.222;2023-05-21T11:42:33;22.10;99.90
12413;DHT22;13877;18.896;-99.222;2023-05-21T11:45:01;22.00;99.90
12413;DHT22;13877;18.896;-99.222;2023-05-21T11:47:29;22.00;99.90
12413;DHT22;13877;18.896;-99.222;2023-05-21T11:50:02;22.00;99.80
12413;DHT22;13877;18.896;-99.222;2023-05-21T11:52:30;22.00;99.70
12413;DHT22;13877;18.896;-99.222;2023-05-21T11:54:58;22.00;99.70
12413;DHT22;13877;18.896;-99.222;2023-05-21T11:57:26;22.00;99.80
12413;DHT22;13877;18.896;-99.222;2023-05-21T11:59:56;21.90;99.80
12413;DHT22;13877;18.896;-99.222;2023-05-21T12:02:31;21.90;99.80
12413;DHT22;13877;18.896;-99.222;2023-05-21T12:04:58;21.90;99.90
12413;DHT22;13877;18.896;-99.222;2023-05-21T12:07:28;21.80;99.90
12413;DHT22;13877;18.896;-99.222;2023-05-21T12:09:56;21.70;99.90
12413;DHT22;13877;18.896;-99.222;2023-05-21T12:12:25;21.60;99.90
12413;DHT22;13877;18.896;-99.222;2023-05-21T12:14:53;21.60;99.90
12413;DHT22;13877;18.896;-99.222;2023-05-21T12:17:24;21.50;99.90
12413;DHT22;13877;18.896;-99.222;2023-05-21T12:19:56;21.40;99.90
12413;DHT22;13877;18.896;-99.222;2023-05-21T12:22:24;21.50;99.90
12413;DHT22;13877;18.896;-99.222;2023-05-21T12:24:53;21.50;99.90
12413;DHT22;13877;18.896;-99.222;2023-05-21T12:27:21;21.70;99.90
12413;DHT22;13877;18.896;-99.222;2023-05-21T12:29:50;21.80;99.90
12413;DHT22;13877;18.896;-99.222;2023-05-21T12:32:18;21.80;99.90
12413;DHT22;13877;18.896;-99.222;2023-05-21T12:34:51;21.80;99.90
12413;DHT22;13877;18.896;-99.222;2023-05-21T12:37:24;21.90;99.90
12413;DHT22;13877;18.896;-99.222;2023-05-21T12:39:53;22.00;99.60
12413;DHT22;13877;18.896;-99.222;2023-05-21T12:42:30;22.10;99.60
12413;DHT22;13877;18.896;-99.222;2023-05-21T12:45:04;22.20;99.40
12413;DHT22;13877;18.896;-99.222;2023-05-21T12:47:31;22.40;98.70
12413;DHT22;13877;18.896;-99.222;2023-05-21T12:50:03;22.50;98.30
12413;DHT22;13877;18.896;-99.222;2023-05-21T12:52:31;22.70;97.80
12413;DHT22;13877;18.896;-99.222;2023-05-21T12:54:58;22.90;97.90
12413;DHT22;13877;18.896;-99.222;2023-05-21T12:57:29;23.10;97.80
12413;DHT22;13877;18.896;-99.222;2023-05-21T13:00:01;23.30;96.60
12413;DHT22;13877;18.896;-99.222;2023-05-21T13:05:04;23.80;95.30
12413;DHT22;13877;18.896;-99.222;2023-05-21T13:07:33;23.90;95.20
12413;DHT22;13877;18.896;-99.222;2023-05-21T13:10:01;24.00;95.50
12413;DHT22;13877;18.896;-99.222;2023-05-21T13:12:29;24.10;94.20
12413;DHT22;13877;18.896;-99.222;2023-05-21T13:14:58;24.20;94.00
12413;DHT22;13877;18.896;-99.222;2023-05-21T13:17:26;24.50;93.70
12413;DHT22;13877;18.896;-99.222;2023-05-21T13:20:07;24.60;93.10
12413;DHT22;13877;18.896;-99.222;2023-05-21T13:22:36;24.90;92.50
12413;DHT22;13877;18.896;-99.222;2023-05-21T13:25:11;25.00;91.70
12413;DHT22;13877;18.896;-99.222;2023-05-21T13:27:42;25.20;91.90
12413;DHT22;13877;18.896;-99.222;2023-05-21T13:30:09;25.20;90.70
12413;DHT22;13877;18.896;-99.222;2023-05-21T13:32:37;25.10;90.50
12413;DHT22;13877;18.896;-99.222;2023-05-21T13:35:05;25.10;90.20
12413;DHT22;13877;18.896;-99.222;2023-05-21T13:37:33;24.80;90.30
12413;DHT22;13877;18.896;-99.222;2023-05-21T13:40:04;24.80;90.70
12413;DHT22;13877;18.896;-99.222;2023-05-21T13:42:34;25.00;90.00
12413;DHT22;13877;18.896;-99.222;2023-05-21T13:45:07;25.10;89.80
12413;DHT22;13877;18.896;-99.222;2023-05-21T13:47:40;25.30;88.70
12413;DHT22;13877;18.896;-99.222;2023-05-21T13:50:08;25.40;86.20
12413;DHT22;13877;18.896;-99.222;2023-05-21T13:52:36;25.30;85.10
12413;DHT22;13877;18.896;-99.222;2023-05-21T13:55:03;25.10;85.10
12413;DHT22;13877;18.896;-99.222;2023-05-21T13:57:30;25.30;85.10
12413;DHT22;13877;18.896;-99.222;2023-05-21T13:59:58;25.30;85.00
12413;DHT22;13877;18.896;-99.222;2023-05-21T14:02:28;25.50;83.60
12413;DHT22;13877;18.896;-99.222;2023-05-21T14:04:54;25.60;82.30
12413;DHT22;13877;18.896;-99.222;2023-05-21T14:07:21;25.70;81.90
12413;DHT22;13877;18.896;-99.222;2023-05-21T14:09:48;26.00;80.60
12413;DHT22;13877;18.896;-99.222;2023-05-21T14:12:15;26.00;81.70
12413;DHT22;13877;18.896;-99.222;2023-05-21T14:14:42;26.20;80.60
12413;DHT22;13877;18.896;-99.222;2023-05-21T14:17:09;26.40;80.30
12413;DHT22;13877;18.896;-99.222;2023-05-21T14:19:36;26.50;79.50
12413;DHT22;13877;18.896;-99.222;2023-05-21T14:22:03;26.60;79.00
12413;DHT22;13877;18.896;-99.222;2023-05-21T14:24:30;26.50;77.30
12413;DHT22;13877;18.896;-99.222;2023-05-21T14:26:57;26.40;77.40
12413;DHT22;13877;18.896;-99.222;2023-05-21T14:29:24;26.00;77.20
12413;DHT22;13877;18.896;-99.222;2023-05-21T14:31:51;26.20;77.40
12413;DHT22;13877;18.896;-99.222;2023-05-21T14:34:18;26.60;75.50
12413;DHT22;13877;18.896;-99.222;2023-05-21T14:36:44;26.70;76.40
12413;DHT22;13877;18.896;-99.222;2023-05-21T14:39:11;26.90;74.80
12413;DHT22;13877;18.896;-99.222;2023-05-21T14:41:38;26.80;75.00
12413;DHT22;13877;18.896;-99.222;2023-05-21T14:44:05;26.80;75.20
12413;DHT22;13877;18.896;-99.222;2023-05-21T14:46:32;26.80;74.80
12413;DHT22;13877;18.896;-99.222;2023-05-21T14:48:59;26.80;74.10
12413;DHT22;13877;18.896;-99.222;2023-05-21T14:51:26;26.80;74.90
12413;DHT22;13877;18.896;-99.222;2023-05-21T14:53:53;27.10;73.80
12413;DHT22;13877;18.896;-99.222;2023-05-21T14:56:21;27.50;73.00
12413;DHT22;13877;18.896;-99.222;2023-05-21T14:58:50;27.50;72.00
12413;DHT22;13877;18.896;-99.222;2023-05-21T15:01:17;27.40;73.80
12413;DHT22;13877;18.896;-99.222;2023-05-21T15:03:44;27.40;71.40
12413;DHT22;13877;18.896;-99.222;2023-05-21T15:06:11;27.50;72.20
12413;DHT22;13877;18.896;-99.222;2023-05-21T15:08:38;27.70;71.80
12413;DHT22;13877;18.896;-99.222;2023-05-21T15:11:05;27.70;71.30
12413;DHT22;13877;18.896;-99.222;2023-05-21T15:13:35;27.70;70.20
12413;DHT22;13877;18.896;-99.222;2023-05-21T15:16:01;27.60;70.30
12413;DHT22;13877;18.896;-99.222;2023-05-21T15:18:29;27.50;73.20
12413;DHT22;13877;18.896;-99.222;2023-05-21T15:20:55;27.70;72.70
12413;DHT22;13877;18.896;-99.222;2023-05-21T15:23:23;28.20;73.30
12413;DHT22;13877;18.896;-99.222;2023-05-21T15:25:50;28.70;70.60
12413;DHT22;13877;18.896;-99.222;2023-05-21T15:28:18;28.80;68.70
12413;DHT22;13877;18.896;-99.222;2023-05-21T15:30:48;28.80;68.50
12413;DHT22;13877;18.896;-99.222;2023-05-21T15:33:14;28.90;66.20
12413;DHT22;13877;18.896;-99.222;2023-05-21T15:35:41;28.80;65.40
12413;DHT22;13877;18.896;-99.222;2023-05-21T15:38:08;28.70;64.80
12413;DHT22;13877;18.896;-99.222;2023-05-21T15:40:35;28.60;65.00
12413;DHT22;13877;18.896;-99.222;2023-05-21T15:43:05;28.90;65.20